Terminal Aerodrome Forecast
Issued by NWS

Home | Current Version | Previous Version | Text Only | Print | Product List | Glossary On
Versions: 1 2 3 4 5 6 7 8 9 10 11 12 13
142
FTUS43 KEAX 030317 AAA
TAFMKC
TAF AMD
KMKC 030317Z 0303/0324 23021G30KT P6SM OVC028
     FM030600 26014G24KT P6SM VCSH OVC018
     FM031200 31012G22KT P6SM BKN020
     FM032100 31012KT P6SM SCT020=

USA.gov is the U.S. government's official web portal to all federal, state and local government web resources and services.